createdAt,value
2024-03-02T00:01:38.174Z,52.80
2024-03-02T00:04:08.226Z,54.00
2024-03-02T00:06:36.599Z,52.60
2024-03-02T00:09:04.873Z,54.20
2024-03-02T00:11:37.252Z,52.40
2024-03-02T00:14:05.520Z,52.80
2024-03-02T00:16:33.996Z,54.70
2024-03-02T00:19:07.248Z,50.30
2024-03-02T00:21:36.180Z,57.30
2024-03-02T00:24:35.292Z,49.80
2024-03-02T00:27:05.398Z,53.20
2024-03-02T00:29:33.569Z,48.40
2024-03-02T00:32:02.467Z,51.70
2024-03-02T00:34:30.637Z,60.40
2024-03-02T00:37:01.292Z,61.80
2024-03-02T00:39:30.361Z,56.20
2024-03-02T00:41:58.524Z,61.80
2024-03-02T00:44:35.510Z,57.50
2024-03-02T00:47:04.390Z,60.90
2024-03-02T00:49:32.569Z,62.70
2024-03-02T00:52:00.796Z,60.10
2024-03-02T00:54:30.282Z,59.30
2024-03-02T00:56:58.621Z,62.20
2024-03-02T00:59:28.427Z,61.30
2024-03-02T01:01:56.635Z,55.80
2024-03-02T01:04:26.212Z,66.10
2024-03-02T01:06:54.541Z,68.90
2024-03-02T01:09:22.785Z,61.50
2024-03-02T01:11:51.141Z,67.20
2024-03-02T01:14:19.320Z,64.00
2024-03-02T01:16:47.486Z,64.00
2024-03-02T01:19:16.358Z,69.40
2024-03-02T01:21:44.798Z,66.30
2024-03-02T01:24:14.765Z,68.00
2024-03-02T01:26:43.046Z,65.50
2024-03-02T01:29:11.120Z,66.80
2024-03-02T01:31:41.124Z,63.90
2024-03-02T01:34:09.838Z,74.00
2024-03-02T01:36:38.018Z,67.50
2024-03-02T01:39:10.267Z,68.50
2024-03-02T01:41:38.552Z,73.00
2024-03-02T01:44:06.921Z,69.70
2024-03-02T01:46:36.237Z,70.60
2024-03-02T01:49:04.430Z,69.50
2024-03-02T01:51:33.096Z,79.70
2024-03-02T01:54:01.253Z,71.40
2024-03-02T01:56:29.405Z,72.20
2024-03-02T01:58:57.475Z,80.10
2024-03-02T02:01:25.590Z,69.60
2024-03-02T02:03:53.872Z,77.00
2024-03-02T02:06:22.978Z,75.90
2024-03-02T02:08:51.189Z,79.60
2024-03-02T02:11:19.476Z,72.60
2024-03-02T02:13:47.639Z,74.60
2024-03-02T02:16:15.826Z,71.60
2024-03-02T02:18:44.348Z,81.00
2024-03-02T02:21:12.566Z,75.20
2024-03-02T02:23:40.836Z,80.90
2024-03-02T02:26:09.022Z,77.20
2024-03-02T02:28:37.412Z,74.60
2024-03-02T02:31:05.601Z,73.50
2024-03-02T02:33:33.986Z,79.60
2024-03-02T02:36:02.316Z,71.30
2024-03-02T02:38:30.616Z,76.60
2024-03-02T02:40:59.219Z,78.70
2024-03-02T02:43:27.445Z,76.60
2024-03-02T02:45:55.918Z,81.00
2024-03-02T02:48:24.269Z,75.10
2024-03-02T02:50:52.577Z,78.10
2024-03-02T02:53:20.653Z,76.70
2024-03-02T02:55:48.833Z,75.60
2024-03-02T02:58:17.197Z,76.30
2024-03-02T03:00:45.520Z,79.60
2024-03-02T03:03:13.752Z,74.20
2024-03-02T03:05:41.949Z,72.30
2024-03-02T03:08:10.154Z,72.00
2024-03-02T03:10:38.401Z,75.60
2024-03-02T03:13:09.526Z,76.10
2024-03-02T03:15:38.039Z,70.60
2024-03-02T03:18:06.560Z,74.70
2024-03-02T03:20:35.153Z,73.10
2024-03-02T03:23:05.149Z,82.50
2024-03-02T03:25:33.239Z,77.70
2024-03-02T03:28:02.609Z,77.60
2024-03-02T03:30:30.906Z,79.50
2024-03-02T03:32:59.089Z,79.90
2024-03-02T03:35:27.259Z,78.10
2024-03-02T03:37:55.839Z,78.20
2024-03-02T03:40:23.914Z,77.90
2024-03-02T03:42:52.336Z,81.20
2024-03-02T03:45:21.535Z,77.00
2024-03-02T03:47:49.892Z,72.80
2024-03-02T03:50:18.137Z,78.20
2024-03-02T03:52:46.207Z,78.30
2024-03-02T03:55:15.107Z,79.90
2024-03-02T03:57:43.284Z,83.20
2024-03-02T04:00:12.661Z,79.60
2024-03-02T04:02:41.052Z,78.30
2024-03-02T04:05:12.625Z,77.20
2024-03-02T04:07:42.115Z,78.90
2024-03-02T04:10:11.673Z,75.10
2024-03-02T04:12:40.598Z,74.40
2024-03-02T04:15:09.738Z,74.70
2024-03-02T04:17:38.485Z,82.80
2024-03-02T04:20:08.054Z,80.90
2024-03-02T04:22:37.203Z,77.70
2024-03-02T04:25:09.068Z,76.90
2024-03-02T04:27:37.625Z,78.50
2024-03-02T04:30:07.079Z,77.20
2024-03-02T04:32:35.513Z,77.30
2024-03-02T04:35:03.788Z,77.30
2024-03-02T04:37:34.582Z,82.30
2024-03-02T04:40:02.860Z,77.10
2024-03-02T04:42:31.300Z,77.10
2024-03-02T04:44:59.446Z,74.00
2024-03-02T04:47:27.625Z,74.30
2024-03-02T04:49:55.990Z,80.60
2024-03-02T04:52:24.162Z,75.60
2024-03-02T04:55:11.280Z,78.00
2024-03-02T04:57:39.513Z,73.90
2024-03-02T05:00:10.145Z,74.10
2024-03-02T05:02:38.472Z,73.90
2024-03-02T05:05:07.445Z,72.50
2024-03-02T05:07:36.031Z,74.10
2024-03-02T05:10:04.713Z,75.20
2024-03-02T05:12:45.165Z,69.30
2024-03-02T05:15:15.132Z,70.20
2024-03-02T05:17:46.567Z,71.80
2024-03-02T05:20:15.131Z,67.10
2024-03-02T05:22:43.390Z,69.20
2024-03-02T05:25:12.145Z,72.50
2024-03-02T05:27:41.057Z,69.20
2024-03-02T05:30:10.108Z,68.50
2024-03-02T05:32:38.776Z,68.10
2024-03-02T05:35:07.737Z,68.40
2024-03-02T05:37:35.921Z,66.80
2024-03-02T05:40:04.710Z,66.40
2024-03-02T05:42:32.982Z,70.20
2024-03-02T05:45:01.177Z,66.90
2024-03-02T05:47:29.534Z,66.00
2024-03-02T05:49:57.999Z,66.00
2024-03-02T05:52:26.175Z,71.30
2024-03-02T05:54:54.600Z,64.30
2024-03-02T05:57:41.834Z,63.90
2024-03-02T06:00:10.455Z,66.00
2024-03-02T06:02:44.678Z,65.20
2024-03-02T06:05:12.948Z,63.30
2024-03-02T06:07:41.302Z,66.50
2024-03-02T06:10:13.888Z,68.50
2024-03-02T06:12:42.986Z,66.20
2024-03-02T06:15:12.329Z,67.40
2024-03-02T06:17:40.840Z,74.90
2024-03-02T06:20:10.034Z,67.10
2024-03-02T06:22:38.581Z,67.30
2024-03-02T06:25:07.408Z,63.50
2024-03-02T06:27:35.981Z,65.70
2024-03-02T06:30:05.479Z,63.00
2024-03-02T06:32:34.182Z,65.80
2024-03-02T06:35:02.742Z,63.60
2024-03-02T06:37:31.035Z,64.90
2024-03-02T06:39:59.322Z,64.50
2024-03-02T06:42:27.778Z,65.40
2024-03-02T06:44:55.923Z,62.90
2024-03-02T06:47:24.197Z,64.50
2024-03-02T06:49:52.681Z,66.00
2024-03-02T06:52:24.896Z,61.40
2024-03-02T06:54:53.684Z,63.30
2024-03-02T06:57:22.411Z,61.40
2024-03-02T06:59:52.746Z,58.90
2024-03-02T07:02:21.646Z,62.20
2024-03-02T07:04:50.165Z,56.50
2024-03-02T07:07:18.773Z,58.10
2024-03-02T07:09:47.186Z,57.60
2024-03-02T07:12:15.638Z,61.50
2024-03-02T07:15:12.881Z,54.90
2024-03-02T07:17:41.249Z,58.00
2024-03-02T07:20:10.264Z,60.50
2024-03-02T07:22:41.079Z,56.30
2024-03-02T07:26:54.596Z,56.90
2024-03-02T07:27:58.862Z,57.30
2024-03-02T07:30:27.266Z,56.60
2024-03-02T07:32:55.542Z,57.80
2024-03-02T07:35:27.964Z,52.70
2024-03-02T07:37:56.854Z,54.30
2024-03-02T07:40:25.525Z,53.10
2024-03-02T07:42:53.820Z,51.00
2024-03-02T07:45:22.251Z,48.70
2024-03-02T07:47:51.376Z,51.80
2024-03-02T07:50:19.769Z,49.30
2024-03-02T07:52:47.852Z,46.40
2024-03-02T07:55:16.036Z,48.80
2024-03-02T07:57:44.399Z,49.40
2024-03-02T08:00:13.169Z,47.60
2024-03-02T08:02:41.643Z,50.10
2024-03-02T08:05:10.326Z,47.60
2024-03-02T08:07:38.806Z,49.60
2024-03-02T08:10:07.572Z,45.00
2024-03-02T08:12:35.886Z,42.70
2024-03-02T08:15:05.343Z,44.20
2024-03-02T08:17:36.013Z,47.90
2024-03-02T08:20:07.123Z,42.40
2024-03-02T08:22:35.209Z,42.30
2024-03-02T08:25:03.747Z,41.90
2024-03-02T08:27:33.710Z,39.30
2024-03-02T08:30:02.136Z,44.70
2024-03-02T08:32:30.411Z,39.90
2024-03-02T08:34:58.632Z,37.80
2024-03-02T08:37:26.701Z,42.20
2024-03-02T08:39:55.037Z,38.70
2024-03-02T08:42:23.788Z,38.60
2024-03-02T08:44:52.046Z,43.00
2024-03-02T08:47:20.210Z,41.20
2024-03-02T08:49:48.281Z,37.20
2024-03-02T08:52:16.356Z,37.40
2024-03-02T08:54:44.440Z,39.00
2024-03-02T08:57:12.701Z,40.40
2024-03-02T08:59:41.078Z,41.00
2024-03-02T09:02:09.247Z,42.40
2024-03-02T09:04:37.419Z,39.20
2024-03-02T09:07:05.680Z,36.70
2024-03-02T09:09:34.014Z,38.10
2024-03-02T09:12:02.396Z,34.60
2024-03-02T09:14:30.621Z,37.80
2024-03-02T09:16:58.912Z,58.70
2024-03-02T09:19:27.173Z,108.70
2024-03-02T09:21:56.946Z,128.00
2024-03-02T09:24:25.869Z,135.20
2024-03-02T09:26:54.062Z,92.50
2024-03-02T09:29:22.382Z,55.50
2024-03-02T09:31:52.127Z,111.40
2024-03-02T09:34:20.435Z,113.80
2024-03-02T09:36:48.684Z,90.60
2024-03-02T09:39:17.159Z,141.90
2024-03-02T09:41:45.533Z,110.50
2024-03-02T09:44:13.913Z,89.10
2024-03-02T09:46:45.326Z,55.10
2024-03-02T09:49:14.149Z,46.20
2024-03-02T09:51:48.540Z,46.00
2024-03-02T09:54:22.232Z,43.80
2024-03-02T09:56:52.541Z,42.90
2024-03-02T09:59:22.028Z,42.30
2024-03-02T10:02:01.268Z,40.10
2024-03-02T10:04:32.307Z,37.20
2024-03-02T10:07:20.010Z,36.90
2024-03-02T10:09:53.326Z,33.50
2024-03-02T10:12:22.313Z,32.80
2024-03-02T10:14:52.929Z,35.90
2024-03-02T10:17:21.090Z,31.60
2024-03-02T10:19:49.258Z,33.00
2024-03-02T10:22:17.436Z,36.20
2024-03-02T10:24:47.058Z,28.50
2024-03-02T10:27:24.160Z,30.40
2024-03-02T10:29:52.491Z,29.40
2024-03-02T10:32:23.946Z,34.40
2024-03-02T10:34:52.127Z,29.60
2024-03-02T10:37:23.069Z,29.70
2024-03-02T10:39:51.360Z,32.10
2024-03-02T10:42:20.691Z,28.20
2024-03-02T10:44:50.040Z,29.50
2024-03-02T10:47:20.761Z,30.30
2024-03-02T10:49:53.056Z,29.90
2024-03-02T10:52:21.199Z,30.80
2024-03-02T10:54:49.717Z,30.00
2024-03-02T10:57:18.471Z,26.20
2024-03-02T10:59:58.761Z,27.00
2024-03-02T11:02:29.043Z,25.00
2024-03-02T11:07:26.532Z,25.90
2024-03-02T11:10:10.205Z,26.80
2024-03-02T11:13:03.411Z,26.40
2024-03-02T11:15:31.931Z,27.70
2024-03-02T11:18:00.498Z,26.40
2024-03-02T11:20:30.162Z,27.50
2024-03-02T11:22:58.256Z,26.30
2024-03-02T11:25:29.614Z,24.90
2024-03-02T11:27:57.754Z,22.70
2024-03-02T11:30:36.121Z,24.80
2024-03-02T11:33:13.397Z,21.70
2024-03-02T11:35:49.661Z,22.90
2024-03-02T11:38:19.745Z,24.70
2024-03-02T11:40:48.175Z,19.70
2024-03-02T11:43:16.713Z,20.70
2024-03-02T11:45:45.848Z,25.30
2024-03-02T11:48:17.765Z,21.60
2024-03-02T11:50:51.839Z,22.60
2024-03-02T11:53:21.797Z,25.50
2024-03-02T11:55:50.770Z,26.40
2024-03-02T11:58:25.090Z,25.70
2024-03-02T12:00:54.077Z,21.10
2024-03-02T12:03:27.267Z,21.30
2024-03-02T12:05:56.731Z,20.00
2024-03-02T12:08:25.897Z,20.20
2024-03-02T12:11:02.712Z,21.20
2024-03-02T12:13:32.481Z,22.60
2024-03-02T12:16:01.144Z,20.10
2024-03-02T12:18:29.773Z,20.00
2024-03-02T12:20:59.999Z,22.50
2024-03-02T12:23:28.879Z,25.60
2024-03-02T12:25:57.833Z,23.70
2024-03-02T12:28:26.416Z,21.60
2024-03-02T12:30:54.903Z,21.60
2024-03-02T12:33:24.301Z,21.70
2024-03-02T12:35:52.607Z,20.00
2024-03-02T12:38:21.175Z,26.10
2024-03-02T12:40:50.982Z,23.60
2024-03-02T12:43:19.539Z,22.60
2024-03-02T12:45:48.194Z,24.10
2024-03-02T12:48:16.611Z,24.40
2024-03-02T12:50:45.664Z,22.90
2024-03-02T12:53:17.983Z,25.60
2024-03-02T12:55:46.461Z,29.50
2024-03-02T12:58:20.009Z,22.50
2024-03-02T13:00:48.724Z,22.40
2024-03-02T13:03:21.162Z,21.80
2024-03-02T13:05:51.272Z,19.00
2024-03-02T13:10:47.824Z,20.80
2024-03-02T13:13:16.265Z,24.20
2024-03-02T13:15:46.441Z,19.30
2024-03-02T13:18:14.900Z,20.70
2024-03-02T13:20:43.124Z,20.10
2024-03-02T13:23:11.605Z,22.60
2024-03-02T13:25:39.778Z,22.80
2024-03-02T13:28:08.844Z,24.30
2024-03-02T13:30:37.268Z,24.20
2024-03-02T13:33:06.042Z,24.90
2024-03-02T13:35:34.212Z,25.30
2024-03-02T13:38:02.587Z,26.30
2024-03-02T13:40:32.090Z,23.80
2024-03-02T13:43:00.290Z,28.80
2024-03-02T13:45:29.289Z,33.30
2024-03-02T13:47:57.636Z,44.40
2024-03-02T13:50:25.802Z,30.00
2024-03-02T13:52:53.880Z,27.50
2024-03-02T13:55:22.043Z,30.10
2024-03-02T13:57:51.453Z,26.30
2024-03-02T14:00:20.336Z,32.20
2024-03-02T14:02:51.071Z,25.60
2024-03-02T14:05:20.668Z,27.50
2024-03-02T14:07:48.745Z,27.00
2024-03-02T14:10:17.267Z,27.50
2024-03-02T14:12:45.535Z,36.20
2024-03-02T14:15:13.772Z,118.50
2024-03-02T14:17:42.070Z,41.20
2024-03-02T14:20:14.738Z,112.20
2024-03-02T14:22:42.898Z,37.60
2024-03-02T14:25:11.302Z,34.50
2024-03-02T14:30:12.846Z,24.20
2024-03-02T14:32:41.037Z,30.30
2024-03-02T14:35:12.819Z,24.80
2024-03-02T14:37:41.151Z,23.40
2024-03-02T14:40:11.092Z,23.40
2024-03-02T14:42:39.472Z,26.30
2024-03-02T14:45:07.816Z,22.20
2024-03-02T14:47:36.785Z,24.00
2024-03-02T14:50:07.552Z,23.60
2024-03-02T14:52:35.814Z,24.60
2024-03-02T14:55:05.540Z,23.10
2024-03-02T14:57:33.725Z,27.20
2024-03-02T15:00:01.971Z,21.50
2024-03-02T15:02:30.357Z,20.60
2024-03-02T15:04:58.734Z,23.80
2024-03-02T15:07:27.214Z,22.80
2024-03-02T15:09:56.340Z,20.10
2024-03-02T15:12:24.969Z,25.90
2024-03-02T15:14:53.160Z,24.00
2024-03-02T15:17:21.435Z,25.30
2024-03-02T15:19:49.616Z,21.90
2024-03-02T15:22:18.399Z,22.20
2024-03-02T15:24:46.602Z,26.00
2024-03-02T15:27:14.747Z,30.20
2024-03-02T15:29:42.921Z,30.10
2024-03-02T15:32:11.286Z,27.70
2024-03-02T15:34:39.638Z,27.80
2024-03-02T15:37:07.943Z,31.30
2024-03-02T15:39:36.286Z,30.30
2024-03-02T15:42:06.160Z,27.10
2024-03-02T15:44:34.414Z,26.80
2024-03-02T15:47:02.881Z,31.90
2024-03-02T15:49:33.305Z,28.90
2024-03-02T15:52:04.873Z,26.50
2024-03-02T15:54:33.256Z,22.20
2024-03-02T15:57:01.613Z,27.00
2024-03-02T15:59:29.786Z,27.90
2024-03-02T16:01:59.805Z,26.00
2024-03-02T16:04:28.082Z,29.70
2024-03-02T16:06:56.385Z,26.10
2024-03-02T16:09:24.672Z,25.60
2024-03-02T16:11:53.415Z,29.10
2024-03-02T16:14:21.720Z,26.80
2024-03-02T16:16:49.860Z,24.30
2024-03-02T16:19:25.764Z,27.40
2024-03-02T16:22:01.146Z,28.10
2024-03-02T16:24:29.593Z,24.30
2024-03-02T16:26:58.326Z,24.20
2024-03-02T16:29:26.499Z,27.10
2024-03-02T16:31:54.673Z,28.80
2024-03-02T16:34:22.978Z,29.70
2024-03-02T16:36:51.273Z,28.50
2024-03-02T16:39:19.591Z,29.00
2024-03-02T16:41:48.438Z,30.60
2024-03-02T16:44:16.964Z,32.10
2024-03-02T16:46:46.688Z,36.40
2024-03-02T16:49:15.083Z,33.20
2024-03-02T16:51:44.346Z,28.00
2024-03-02T16:54:12.619Z,32.20
2024-03-02T16:56:44.402Z,29.10
2024-03-02T16:59:12.666Z,30.10
2024-03-02T17:01:41.177Z,32.80
2024-03-02T17:04:09.658Z,40.60
2024-03-02T17:06:38.042Z,42.10
2024-03-02T17:09:06.777Z,50.10
2024-03-02T17:11:36.537Z,45.00
2024-03-02T17:14:05.081Z,43.70
2024-03-02T17:16:33.138Z,38.70
2024-03-02T17:19:01.831Z,48.70
2024-03-02T17:21:30.514Z,47.50
2024-03-02T17:23:59.663Z,43.40
2024-03-02T17:26:27.982Z,46.20
2024-03-02T17:28:56.264Z,42.80
2024-03-02T17:31:24.428Z,40.60
2024-03-02T17:33:52.721Z,40.30
2024-03-02T17:36:20.975Z,35.50
2024-03-02T17:38:49.263Z,31.40
2024-03-02T17:41:17.625Z,32.10
2024-03-02T17:43:45.900Z,31.90
2024-03-02T17:46:14.158Z,31.00
2024-03-02T17:48:42.891Z,30.50
2024-03-02T17:51:11.336Z,32.20
2024-03-02T17:53:39.620Z,30.50
2024-03-02T17:56:10.964Z,34.60
2024-03-02T17:58:39.574Z,27.80
2024-03-02T18:01:07.885Z,31.40
2024-03-02T18:03:36.495Z,31.90
2024-03-02T18:06:05.870Z,28.90
2024-03-02T18:08:36.056Z,32.60
2024-03-02T18:11:08.018Z,33.80
2024-03-02T18:16:06.035Z,40.40
2024-03-02T18:18:34.326Z,33.10
2024-03-02T18:21:03.859Z,34.50
2024-03-02T18:23:32.545Z,34.80
2024-03-02T18:26:01.133Z,39.70
2024-03-02T18:28:29.354Z,35.10
2024-03-02T18:30:59.757Z,34.20
2024-03-02T18:35:56.774Z,33.70
2024-03-02T18:38:24.952Z,33.90
2024-03-02T18:40:53.118Z,39.10
2024-03-02T18:43:21.498Z,34.70
2024-03-02T18:45:49.822Z,35.40
2024-03-02T18:48:18.092Z,34.10
2024-03-02T18:50:46.318Z,40.10
2024-03-02T18:53:14.804Z,32.60
2024-03-02T18:55:42.972Z,36.70
2024-03-02T18:58:11.073Z,33.10
2024-03-02T19:00:39.767Z,34.00
2024-03-02T19:03:11.002Z,35.10
2024-03-02T19:05:39.765Z,36.90
2024-03-02T19:08:09.354Z,35.80
2024-03-02T19:10:37.659Z,34.50
2024-03-02T19:13:07.310Z,31.10
2024-03-02T19:15:35.681Z,32.10
2024-03-02T19:18:04.612Z,34.50
2024-03-02T19:20:33.099Z,33.60
2024-03-02T19:23:01.711Z,33.90
2024-03-02T19:25:29.974Z,32.80
2024-03-02T19:27:58.465Z,32.00
2024-03-02T19:30:27.218Z,34.50
2024-03-02T19:32:55.645Z,34.00
2024-03-02T19:35:23.875Z,34.10
2024-03-02T19:37:53.272Z,32.50
2024-03-02T19:40:21.442Z,38.70
2024-03-02T19:42:49.674Z,34.60
2024-03-02T19:45:18.046Z,32.60
2024-03-02T19:47:46.170Z,36.50
2024-03-02T19:50:15.531Z,35.10
2024-03-02T19:52:43.848Z,30.60
2024-03-02T19:55:14.172Z,31.60
2024-03-02T19:57:46.115Z,30.40
2024-03-02T20:00:15.807Z,32.80
2024-03-02T20:02:44.030Z,34.50
2024-03-02T20:05:13.438Z,34.70
2024-03-02T20:07:42.749Z,36.50
2024-03-02T20:10:12.624Z,35.90
2024-03-02T20:12:41.101Z,39.60
2024-03-02T20:15:21.068Z,35.80
2024-03-02T20:17:49.374Z,36.80
2024-03-02T20:20:18.011Z,32.10
2024-03-02T20:22:47.205Z,37.00
2024-03-02T20:25:17.110Z,36.90
2024-03-02T20:27:46.479Z,35.90
2024-03-02T20:30:15.119Z,40.90
2024-03-02T20:32:43.836Z,40.50
2024-03-02T20:35:12.786Z,38.20
2024-03-02T20:37:41.369Z,34.80
2024-03-02T20:40:10.384Z,35.80
2024-03-02T20:42:39.316Z,36.50
2024-03-02T20:45:08.661Z,35.20
2024-03-02T20:47:36.830Z,33.30
2024-03-02T20:50:05.637Z,37.30
2024-03-02T20:52:33.987Z,35.70
2024-03-02T20:55:02.134Z,35.20
2024-03-02T20:57:30.534Z,37.40
2024-03-02T20:59:58.816Z,33.70
2024-03-02T21:02:27.551Z,37.40
2024-03-02T21:04:55.888Z,37.80
2024-03-02T21:07:24.072Z,34.30
2024-03-02T21:09:53.978Z,31.10
2024-03-02T21:12:22.344Z,35.50
2024-03-02T21:14:50.608Z,32.40
2024-03-02T21:17:18.775Z,36.30
2024-03-02T21:19:48.487Z,34.30
2024-03-02T21:22:16.988Z,36.10
2024-03-02T21:24:47.348Z,36.90
2024-03-02T21:27:18.519Z,38.00
2024-03-02T21:29:48.303Z,35.70
2024-03-02T21:32:16.628Z,31.50
2024-03-02T21:34:44.800Z,32.30
2024-03-02T21:37:13.152Z,34.00
2024-03-02T21:39:47.022Z,33.20
2024-03-02T21:42:15.965Z,36.40
2024-03-02T21:44:44.448Z,28.40
2024-03-02T21:47:13.852Z,32.20
2024-03-02T21:49:42.027Z,30.20
2024-03-02T21:52:10.640Z,29.70
2024-03-02T21:54:38.899Z,30.50
2024-03-02T21:57:10.637Z,28.50
2024-03-02T21:59:40.547Z,33.20
2024-03-02T22:02:08.902Z,29.10
2024-03-02T22:04:37.511Z,30.80
2024-03-02T22:07:05.808Z,29.40
2024-03-02T22:09:35.562Z,29.20
2024-03-02T22:12:04.018Z,27.60
2024-03-02T22:14:32.248Z,27.30
2024-03-02T22:17:00.549Z,27.80
2024-03-02T22:19:28.911Z,24.90
2024-03-02T22:21:57.204Z,27.60
2024-03-02T22:24:26.265Z,27.50
2024-03-02T22:26:54.451Z,29.00
2024-03-02T22:29:22.612Z,26.20
2024-03-02T22:31:50.992Z,31.30
2024-03-02T22:34:19.400Z,28.70
2024-03-02T22:36:47.655Z,30.70
2024-03-02T22:39:15.814Z,25.90
2024-03-02T22:41:44.396Z,30.80
2024-03-02T22:44:12.676Z,27.90
2024-03-02T22:46:40.841Z,29.60
2024-03-02T22:49:09.038Z,32.30
2024-03-02T22:51:37.256Z,30.60
2024-03-02T22:54:05.469Z,30.60
2024-03-02T22:56:33.745Z,26.60
2024-03-02T22:59:02.339Z,27.40
2024-03-02T23:01:30.630Z,26.90
2024-03-02T23:03:58.787Z,27.40
2024-03-02T23:06:27.866Z,29.30
2024-03-02T23:08:56.034Z,27.40
2024-03-02T23:11:24.439Z,25.60
2024-03-02T23:13:52.698Z,25.00
2024-03-02T23:16:20.888Z,25.60
2024-03-02T23:18:50.157Z,23.90
2024-03-02T23:21:18.442Z,24.00
2024-03-02T23:23:46.605Z,21.90
2024-03-02T23:26:14.791Z,26.10
2024-03-02T23:28:42.954Z,23.10
2024-03-02T23:31:11.201Z,24.70
2024-03-02T23:33:40.078Z,26.70
2024-03-02T23:36:08.286Z,29.90
2024-03-02T23:38:36.366Z,23.50
2024-03-02T23:41:16.220Z,24.30
2024-03-02T23:43:44.387Z,21.30
2024-03-02T23:46:12.900Z,21.70
2024-03-02T23:48:41.267Z,23.00
2024-03-02T23:51:09.510Z,23.90
2024-03-02T23:53:37.684Z,22.10
2024-03-02T23:56:13.740Z,19.50
2024-03-02T23:58:42.225Z,22.50
